sensor_id;sensor_type;location;lat;lon;timestamp;P1;durP1;ratioP1;P2;durP2;ratioP2
15486;SDS011;7845;53.698;10.078;2023-02-20T00:00:25;3.67;;;0.90;;
15486;SDS011;7845;53.698;10.078;2023-02-20T00:02:52;3.90;;;0.77;;
15486;SDS011;7845;53.698;10.078;2023-02-20T00:05:18;3.53;;;0.93;;
15486;SDS011;7845;53.698;10.078;2023-02-20T00:07:44;5.10;;;1.23;;
15486;SDS011;7845;53.698;10.078;2023-02-20T00:10:09;3.30;;;1.00;;
15486;SDS011;7845;53.698;10.078;2023-02-20T00:12:34;4.50;;;1.13;;
15486;SDS011;7845;53.698;10.078;2023-02-20T00:15:03;4.03;;;1.40;;
15486;SDS011;7845;53.698;10.078;2023-02-20T00:17:29;4.40;;;0.80;;
15486;SDS011;7845;53.698;10.078;2023-02-20T00:19:55;4.07;;;1.00;;
15486;SDS011;7845;53.698;10.078;2023-02-20T00:22:20;3.33;;;0.90;;
15486;SDS011;7845;53.698;10.078;2023-02-20T00:24:46;3.83;;;1.30;;
15486;SDS011;7845;53.698;10.078;2023-02-20T00:27:12;4.57;;;1.20;;
15486;SDS011;7845;53.698;10.078;2023-02-20T00:29:37;7.13;;;1.47;;
15486;SDS011;7845;53.698;10.078;2023-02-20T00:32:03;5.13;;;1.93;;
15486;SDS011;7845;53.698;10.078;2023-02-20T00:34:29;5.40;;;1.10;;
15486;SDS011;7845;53.698;10.078;2023-02-20T00:36:54;3.83;;;1.43;;
15486;SDS011;7845;53.698;10.078;2023-02-20T00:39:19;5.17;;;1.20;;
15486;SDS011;7845;53.698;10.078;2023-02-20T00:41:45;7.13;;;1.40;;
15486;SDS011;7845;53.698;10.078;2023-02-20T00:44:10;6.57;;;1.30;;
15486;SDS011;7845;53.698;10.078;2023-02-20T00:46:36;5.77;;;1.60;;
15486;SDS011;7845;53.698;10.078;2023-02-20T00:49:01;4.63;;;1.17;;
15486;SDS011;7845;53.698;10.078;2023-02-20T00:51:27;3.93;;;1.30;;
15486;SDS011;7845;53.698;10.078;2023-02-20T00:53:52;6.40;;;2.00;;
15486;SDS011;7845;53.698;10.078;2023-02-20T00:56:18;3.60;;;1.40;;
15486;SDS011;7845;53.698;10.078;2023-02-20T00:58:43;5.43;;;1.60;;
15486;SDS011;7845;53.698;10.078;2023-02-20T01:01:08;5.80;;;1.20;;
15486;SDS011;7845;53.698;10.078;2023-02-20T01:03:34;5.90;;;1.57;;
15486;SDS011;7845;53.698;10.078;2023-02-20T01:06:00;4.33;;;1.30;;
15486;SDS011;7845;53.698;10.078;2023-02-20T01:08:25;4.53;;;1.33;;
15486;SDS011;7845;53.698;10.078;2023-02-20T01:10:50;6.33;;;1.57;;
15486;SDS011;7845;53.698;10.078;2023-02-20T01:13:16;5.23;;;1.57;;
15486;SDS011;7845;53.698;10.078;2023-02-20T01:15:42;5.60;;;1.70;;
15486;SDS011;7845;53.698;10.078;2023-02-20T01:18:07;5.87;;;1.70;;
15486;SDS011;7845;53.698;10.078;2023-02-20T01:20:33;3.50;;;1.20;;
15486;SDS011;7845;53.698;10.078;2023-02-20T01:22:58;3.53;;;1.17;;
15486;SDS011;7845;53.698;10.078;2023-02-20T01:25:23;5.23;;;1.23;;
15486;SDS011;7845;53.698;10.078;2023-02-20T01:27:49;3.80;;;1.30;;
15486;SDS011;7845;53.698;10.078;2023-02-20T01:30:14;4.73;;;1.70;;
15486;SDS011;7845;53.698;10.078;2023-02-20T01:32:40;4.40;;;1.33;;
15486;SDS011;7845;53.698;10.078;2023-02-20T01:35:06;3.83;;;1.23;;
15486;SDS011;7845;53.698;10.078;2023-02-20T01:37:31;4.23;;;1.30;;
15486;SDS011;7845;53.698;10.078;2023-02-20T01:39:57;5.27;;;1.70;;
15486;SDS011;7845;53.698;10.078;2023-02-20T01:42:23;6.43;;;1.13;;
15486;SDS011;7845;53.698;10.078;2023-02-20T01:44:52;8.70;;;2.00;;
15486;SDS011;7845;53.698;10.078;2023-02-20T01:47:19;6.87;;;1.67;;
15486;SDS011;7845;53.698;10.078;2023-02-20T01:52:22;5.30;;;1.50;;
15486;SDS011;7845;53.698;10.078;2023-02-20T01:54:51;4.00;;;1.40;;
15486;SDS011;7845;53.698;10.078;2023-02-20T01:57:37;4.10;;;1.20;;
15486;SDS011;7845;53.698;10.078;2023-02-20T02:00:09;4.53;;;1.50;;
15486;SDS011;7845;53.698;10.078;2023-02-20T02:02:41;4.47;;;1.40;;
15486;SDS011;7845;53.698;10.078;2023-02-20T02:05:14;4.30;;;1.37;;
15486;SDS011;7845;53.698;10.078;2023-02-20T02:07:41;4.10;;;1.40;;
15486;SDS011;7845;53.698;10.078;2023-02-20T02:10:07;5.80;;;1.57;;
15486;SDS011;7845;53.698;10.078;2023-02-20T02:12:35;4.47;;;1.40;;
15486;SDS011;7845;53.698;10.078;2023-02-20T02:15:01;5.50;;;1.70;;
15486;SDS011;7845;53.698;10.078;2023-02-20T02:42:28;4.40;;;1.80;;
15486;SDS011;7845;53.698;10.078;2023-02-20T02:45:18;5.70;;;2.23;;
15486;SDS011;7845;53.698;10.078;2023-02-20T02:48:10;5.93;;;2.10;;
15486;SDS011;7845;53.698;10.078;2023-02-20T02:50:44;7.57;;;2.77;;
15486;SDS011;7845;53.698;10.078;2023-02-20T02:53:11;6.03;;;2.47;;
15486;SDS011;7845;53.698;10.078;2023-02-20T02:55:38;5.30;;;2.30;;
15486;SDS011;7845;53.698;10.078;2023-02-20T02:58:03;4.80;;;1.90;;
15486;SDS011;7845;53.698;10.078;2023-02-20T03:00:33;5.10;;;2.10;;
15486;SDS011;7845;53.698;10.078;2023-02-20T03:03:10;4.87;;;2.10;;
15486;SDS011;7845;53.698;10.078;2023-02-20T03:05:43;4.43;;;2.40;;
15486;SDS011;7845;53.698;10.078;2023-02-20T03:08:18;5.50;;;2.70;;
15486;SDS011;7845;53.698;10.078;2023-02-20T03:10:55;6.20;;;2.57;;
15486;SDS011;7845;53.698;10.078;2023-02-20T03:13:24;6.30;;;3.07;;
15486;SDS011;7845;53.698;10.078;2023-02-20T03:16:12;6.63;;;2.83;;
15486;SDS011;7845;53.698;10.078;2023-02-20T03:18:42;5.87;;;2.87;;
15486;SDS011;7845;53.698;10.078;2023-02-20T03:21:12;6.03;;;2.80;;
15486;SDS011;7845;53.698;10.078;2023-02-20T03:23:41;6.53;;;2.70;;
15486;SDS011;7845;53.698;10.078;2023-02-20T03:26:10;6.13;;;2.60;;
15486;SDS011;7845;53.698;10.078;2023-02-20T03:28:56;4.50;;;1.90;;
15486;SDS011;7845;53.698;10.078;2023-02-20T03:32:00;5.10;;;2.10;;
15486;SDS011;7845;53.698;10.078;2023-02-20T03:34:48;4.77;;;2.20;;
15486;SDS011;7845;53.698;10.078;2023-02-20T03:37:35;4.80;;;2.10;;
15486;SDS011;7845;53.698;10.078;2023-02-20T03:40:21;6.00;;;2.80;;
15486;SDS011;7845;53.698;10.078;2023-02-20T03:43:09;5.70;;;2.37;;
15486;SDS011;7845;53.698;10.078;2023-02-20T03:45:48;8.90;;;3.97;;
15486;SDS011;7845;53.698;10.078;2023-02-20T03:48:16;5.50;;;3.10;;
15486;SDS011;7845;53.698;10.078;2023-02-20T03:51:02;6.20;;;3.00;;
15486;SDS011;7845;53.698;10.078;2023-02-20T03:53:28;5.93;;;2.83;;
15486;SDS011;7845;53.698;10.078;2023-02-20T03:55:53;6.37;;;3.10;;
15486;SDS011;7845;53.698;10.078;2023-02-20T03:58:22;5.27;;;2.97;;
15486;SDS011;7845;53.698;10.078;2023-02-20T04:00:50;6.43;;;3.30;;
15486;SDS011;7845;53.698;10.078;2023-02-20T04:03:20;5.37;;;2.77;;
15486;SDS011;7845;53.698;10.078;2023-02-20T04:05:48;5.53;;;2.47;;
15486;SDS011;7845;53.698;10.078;2023-02-20T04:08:36;6.30;;;3.37;;
15486;SDS011;7845;53.698;10.078;2023-02-20T04:11:11;8.03;;;3.20;;
15486;SDS011;7845;53.698;10.078;2023-02-20T04:13:40;6.23;;;3.20;;
15486;SDS011;7845;53.698;10.078;2023-02-20T04:16:06;5.90;;;3.00;;
15486;SDS011;7845;53.698;10.078;2023-02-20T04:18:32;5.40;;;2.60;;
15486;SDS011;7845;53.698;10.078;2023-02-20T04:21:00;7.60;;;3.63;;
15486;SDS011;7845;53.698;10.078;2023-02-20T04:23:30;7.80;;;4.00;;
15486;SDS011;7845;53.698;10.078;2023-02-20T04:26:03;7.27;;;3.40;;
15486;SDS011;7845;53.698;10.078;2023-02-20T04:28:32;7.03;;;3.97;;
15486;SDS011;7845;53.698;10.078;2023-02-20T04:30:57;7.97;;;4.27;;
15486;SDS011;7845;53.698;10.078;2023-02-20T04:33:23;7.43;;;3.63;;
15486;SDS011;7845;53.698;10.078;2023-02-20T04:35:48;6.50;;;3.70;;
15486;SDS011;7845;53.698;10.078;2023-02-20T04:38:14;7.93;;;4.60;;
15486;SDS011;7845;53.698;10.078;2023-02-20T04:40:39;7.23;;;3.83;;
15486;SDS011;7845;53.698;10.078;2023-02-20T04:43:05;7.33;;;4.40;;
15486;SDS011;7845;53.698;10.078;2023-02-20T04:45:30;7.00;;;3.90;;
15486;SDS011;7845;53.698;10.078;2023-02-20T04:47:55;6.70;;;3.90;;
15486;SDS011;7845;53.698;10.078;2023-02-20T04:50:25;7.57;;;4.50;;
15486;SDS011;7845;53.698;10.078;2023-02-20T04:52:55;6.60;;;4.10;;
15486;SDS011;7845;53.698;10.078;2023-02-20T04:55:21;7.93;;;3.70;;
15486;SDS011;7845;53.698;10.078;2023-02-20T04:57:46;8.13;;;3.30;;
15486;SDS011;7845;53.698;10.078;2023-02-20T05:00:13;6.67;;;3.80;;
15486;SDS011;7845;53.698;10.078;2023-02-20T05:02:40;7.63;;;4.53;;
15486;SDS011;7845;53.698;10.078;2023-02-20T05:05:06;7.00;;;4.40;;
15486;SDS011;7845;53.698;10.078;2023-02-20T05:07:41;7.17;;;4.07;;
15486;SDS011;7845;53.698;10.078;2023-02-20T05:10:06;7.53;;;4.40;;
15486;SDS011;7845;53.698;10.078;2023-02-20T05:12:32;6.50;;;4.00;;
15486;SDS011;7845;53.698;10.078;2023-02-20T05:14:57;7.70;;;4.50;;
15486;SDS011;7845;53.698;10.078;2023-02-20T05:17:22;7.90;;;4.43;;
15486;SDS011;7845;53.698;10.078;2023-02-20T05:19:47;6.70;;;4.40;;
15486;SDS011;7845;53.698;10.078;2023-02-20T05:22:13;7.53;;;4.57;;
15486;SDS011;7845;53.698;10.078;2023-02-20T05:24:47;10.47;;;6.03;;
15486;SDS011;7845;53.698;10.078;2023-02-20T05:27:15;10.50;;;6.53;;
15486;SDS011;7845;53.698;10.078;2023-02-20T05:29:47;9.73;;;5.40;;
15486;SDS011;7845;53.698;10.078;2023-02-20T05:32:20;9.57;;;6.00;;
15486;SDS011;7845;53.698;10.078;2023-02-20T05:34:46;8.47;;;6.50;;
15486;SDS011;7845;53.698;10.078;2023-02-20T05:37:12;9.73;;;6.33;;
15486;SDS011;7845;53.698;10.078;2023-02-20T05:39:40;11.00;;;7.33;;
15486;SDS011;7845;53.698;10.078;2023-02-20T05:42:06;9.67;;;6.00;;
15486;SDS011;7845;53.698;10.078;2023-02-20T05:44:32;9.63;;;6.60;;
15486;SDS011;7845;53.698;10.078;2023-02-20T05:46:58;12.70;;;8.17;;
15486;SDS011;7845;53.698;10.078;2023-02-20T05:49:23;12.00;;;7.43;;
15486;SDS011;7845;53.698;10.078;2023-02-20T05:51:49;10.87;;;6.47;;
15486;SDS011;7845;53.698;10.078;2023-02-20T05:54:16;11.07;;;6.50;;
15486;SDS011;7845;53.698;10.078;2023-02-20T05:56:42;9.90;;;6.67;;
15486;SDS011;7845;53.698;10.078;2023-02-20T05:59:08;9.73;;;6.70;;
15486;SDS011;7845;53.698;10.078;2023-02-20T06:01:34;10.77;;;7.43;;
15486;SDS011;7845;53.698;10.078;2023-02-20T06:03:59;11.33;;;7.10;;
15486;SDS011;7845;53.698;10.078;2023-02-20T06:06:32;10.50;;;7.00;;
15486;SDS011;7845;53.698;10.078;2023-02-20T06:08:58;13.90;;;7.10;;
15486;SDS011;7845;53.698;10.078;2023-02-20T06:11:23;10.30;;;6.27;;
15486;SDS011;7845;53.698;10.078;2023-02-20T06:13:49;15.57;;;7.33;;
15486;SDS011;7845;53.698;10.078;2023-02-20T06:16:20;11.77;;;7.90;;
15486;SDS011;7845;53.698;10.078;2023-02-20T06:18:49;11.37;;;7.03;;
15486;SDS011;7845;53.698;10.078;2023-02-20T06:21:15;14.73;;;6.70;;
15486;SDS011;7845;53.698;10.078;2023-02-20T06:23:42;11.07;;;6.27;;
15486;SDS011;7845;53.698;10.078;2023-02-20T06:26:10;11.30;;;7.20;;
15486;SDS011;7845;53.698;10.078;2023-02-20T06:28:36;10.67;;;6.50;;
15486;SDS011;7845;53.698;10.078;2023-02-20T06:31:01;11.40;;;7.23;;
15486;SDS011;7845;53.698;10.078;2023-02-20T06:33:27;12.40;;;7.20;;
15486;SDS011;7845;53.698;10.078;2023-02-20T06:35:52;10.67;;;6.13;;
15486;SDS011;7845;53.698;10.078;2023-02-20T06:38:18;9.87;;;6.17;;
15486;SDS011;7845;53.698;10.078;2023-02-20T06:40:43;10.30;;;6.70;;
15486;SDS011;7845;53.698;10.078;2023-02-20T06:43:09;10.37;;;7.03;;
15486;SDS011;7845;53.698;10.078;2023-02-20T06:45:34;10.73;;;6.53;;
15486;SDS011;7845;53.698;10.078;2023-02-20T06:47:59;11.60;;;6.97;;
15486;SDS011;7845;53.698;10.078;2023-02-20T06:50:26;11.77;;;7.57;;
15486;SDS011;7845;53.698;10.078;2023-02-20T06:52:51;9.40;;;6.57;;
15486;SDS011;7845;53.698;10.078;2023-02-20T06:55:17;9.83;;;6.50;;
15486;SDS011;7845;53.698;10.078;2023-02-20T06:57:42;10.67;;;6.80;;
15486;SDS011;7845;53.698;10.078;2023-02-20T07:00:07;16.03;;;8.47;;
15486;SDS011;7845;53.698;10.078;2023-02-20T07:02:33;14.60;;;8.50;;
15486;SDS011;7845;53.698;10.078;2023-02-20T07:05:00;10.60;;;6.93;;
15486;SDS011;7845;53.698;10.078;2023-02-20T07:07:26;12.70;;;8.30;;
15486;SDS011;7845;53.698;10.078;2023-02-20T07:09:51;12.27;;;7.73;;
15486;SDS011;7845;53.698;10.078;2023-02-20T07:12:16;11.53;;;7.90;;
15486;SDS011;7845;53.698;10.078;2023-02-20T07:14:42;11.70;;;8.40;;
15486;SDS011;7845;53.698;10.078;2023-02-20T07:17:07;13.37;;;8.00;;
15486;SDS011;7845;53.698;10.078;2023-02-20T07:19:32;14.10;;;8.50;;
15486;SDS011;7845;53.698;10.078;2023-02-20T07:21:58;14.80;;;9.47;;
15486;SDS011;7845;53.698;10.078;2023-02-20T07:24:23;12.97;;;8.80;;
15486;SDS011;7845;53.698;10.078;2023-02-20T07:26:48;12.57;;;9.27;;
15486;SDS011;7845;53.698;10.078;2023-02-20T07:29:14;13.23;;;9.47;;
15486;SDS011;7845;53.698;10.078;2023-02-20T07:31:39;13.97;;;9.80;;
15486;SDS011;7845;53.698;10.078;2023-02-20T07:34:04;13.40;;;9.80;;
15486;SDS011;7845;53.698;10.078;2023-02-20T07:36:30;13.47;;;9.67;;
15486;SDS011;7845;53.698;10.078;2023-02-20T07:38:56;12.37;;;9.47;;
15486;SDS011;7845;53.698;10.078;2023-02-20T07:41:24;12.97;;;8.33;;
15486;SDS011;7845;53.698;10.078;2023-02-20T07:43:50;14.07;;;9.33;;
15486;SDS011;7845;53.698;10.078;2023-02-20T07:46:15;12.70;;;8.50;;
15486;SDS011;7845;53.698;10.078;2023-02-20T07:48:41;14.63;;;8.70;;
15486;SDS011;7845;53.698;10.078;2023-02-20T07:51:06;12.70;;;9.20;;
15486;SDS011;7845;53.698;10.078;2023-02-20T07:53:32;12.33;;;9.07;;
15486;SDS011;7845;53.698;10.078;2023-02-20T07:55:57;11.80;;;8.73;;
15486;SDS011;7845;53.698;10.078;2023-02-20T07:58:23;17.30;;;10.47;;
15486;SDS011;7845;53.698;10.078;2023-02-20T08:00:49;12.37;;;9.23;;
15486;SDS011;7845;53.698;10.078;2023-02-20T08:03:18;17.17;;;10.40;;
15486;SDS011;7845;53.698;10.078;2023-02-20T08:05:43;17.33;;;12.40;;
15486;SDS011;7845;53.698;10.078;2023-02-20T08:08:09;14.57;;;9.43;;
15486;SDS011;7845;53.698;10.078;2023-02-20T08:10:34;16.50;;;12.07;;
15486;SDS011;7845;53.698;10.078;2023-02-20T08:13:00;16.70;;;11.70;;
15486;SDS011;7845;53.698;10.078;2023-02-20T08:15:26;17.43;;;10.17;;
15486;SDS011;7845;53.698;10.078;2023-02-20T08:17:52;15.57;;;11.93;;
15486;SDS011;7845;53.698;10.078;2023-02-20T08:20:17;16.63;;;11.97;;
15486;SDS011;7845;53.698;10.078;2023-02-20T08:22:45;15.40;;;11.20;;
15486;SDS011;7845;53.698;10.078;2023-02-20T08:25:11;20.43;;;12.70;;
15486;SDS011;7845;53.698;10.078;2023-02-20T08:27:40;22.83;;;13.20;;
15486;SDS011;7845;53.698;10.078;2023-02-20T08:30:06;15.73;;;12.10;;
15486;SDS011;7845;53.698;10.078;2023-02-20T08:32:32;15.83;;;11.13;;
15486;SDS011;7845;53.698;10.078;2023-02-20T08:34:57;16.10;;;12.30;;
15486;SDS011;7845;53.698;10.078;2023-02-20T08:37:22;16.90;;;11.67;;
15486;SDS011;7845;53.698;10.078;2023-02-20T08:39:48;13.40;;;11.20;;
15486;SDS011;7845;53.698;10.078;2023-02-20T08:42:14;16.47;;;11.10;;
15486;SDS011;7845;53.698;10.078;2023-02-20T08:44:43;17.93;;;12.53;;
15486;SDS011;7845;53.698;10.078;2023-02-20T08:47:08;19.90;;;11.40;;
15486;SDS011;7845;53.698;10.078;2023-02-20T08:49:34;17.33;;;10.83;;
15486;SDS011;7845;53.698;10.078;2023-02-20T08:51:59;17.90;;;11.13;;
15486;SDS011;7845;53.698;10.078;2023-02-20T08:54:25;18.13;;;11.70;;
15486;SDS011;7845;53.698;10.078;2023-02-20T08:56:50;19.30;;;12.43;;
15486;SDS011;7845;53.698;10.078;2023-02-20T08:59:15;16.73;;;10.70;;
15486;SDS011;7845;53.698;10.078;2023-02-20T09:01:41;15.87;;;12.00;;
15486;SDS011;7845;53.698;10.078;2023-02-20T09:04:08;17.00;;;10.40;;
15486;SDS011;7845;53.698;10.078;2023-02-20T09:06:34;20.13;;;13.43;;
15486;SDS011;7845;53.698;10.078;2023-02-20T09:09:00;16.07;;;10.80;;
15486;SDS011;7845;53.698;10.078;2023-02-20T09:11:26;18.13;;;12.20;;
15486;SDS011;7845;53.698;10.078;2023-02-20T09:13:52;17.50;;;11.10;;
15486;SDS011;7845;53.698;10.078;2023-02-20T09:16:18;15.27;;;10.63;;
15486;SDS011;7845;53.698;10.078;2023-02-20T09:18:45;14.10;;;11.10;;
15486;SDS011;7845;53.698;10.078;2023-02-20T09:21:11;17.20;;;11.40;;
15486;SDS011;7845;53.698;10.078;2023-02-20T09:23:37;16.63;;;13.00;;
15486;SDS011;7845;53.698;10.078;2023-02-20T09:26:03;14.50;;;10.90;;
15486;SDS011;7845;53.698;10.078;2023-02-20T09:28:29;15.23;;;10.40;;
15486;SDS011;7845;53.698;10.078;2023-02-20T09:30:54;18.10;;;10.67;;
15486;SDS011;7845;53.698;10.078;2023-02-20T09:33:21;15.07;;;10.33;;
15486;SDS011;7845;53.698;10.078;2023-02-20T09:35:47;21.10;;;10.17;;
15486;SDS011;7845;53.698;10.078;2023-02-20T09:38:16;16.77;;;10.67;;
15486;SDS011;7845;53.698;10.078;2023-02-20T09:40:42;16.73;;;9.47;;
15486;SDS011;7845;53.698;10.078;2023-02-20T09:43:09;17.13;;;11.40;;
15486;SDS011;7845;53.698;10.078;2023-02-20T09:46:31;18.03;;;12.30;;
15486;SDS011;7845;53.698;10.078;2023-02-20T09:51:23;15.60;;;9.50;;
15486;SDS011;7845;53.698;10.078;2023-02-20T09:56:36;21.10;;;11.70;;
15486;SDS011;7845;53.698;10.078;2023-02-20T09:59:15;16.53;;;9.90;;
15486;SDS011;7845;53.698;10.078;2023-02-20T10:01:59;18.93;;;10.30;;
15486;SDS011;7845;53.698;10.078;2023-02-20T10:04:58;18.33;;;10.00;;
15486;SDS011;7845;53.698;10.078;2023-02-20T10:07:30;16.43;;;10.63;;
15486;SDS011;7845;53.698;10.078;2023-02-20T10:09:58;16.63;;;10.97;;
15486;SDS011;7845;53.698;10.078;2023-02-20T10:15:16;19.77;;;10.37;;
15486;SDS011;7845;53.698;10.078;2023-02-20T10:21:43;15.33;;;8.60;;
15486;SDS011;7845;53.698;10.078;2023-02-20T10:23:50;14.07;;;10.10;;
15486;SDS011;7845;53.698;10.078;2023-02-20T10:26:22;16.30;;;10.70;;
15486;SDS011;7845;53.698;10.078;2023-02-20T10:28:53;17.60;;;9.00;;
15486;SDS011;7845;53.698;10.078;2023-02-20T10:31:34;13.20;;;8.97;;
15486;SDS011;7845;53.698;10.078;2023-02-20T10:34:09;13.07;;;8.90;;
15486;SDS011;7845;53.698;10.078;2023-02-20T10:36:42;13.63;;;9.00;;
15486;SDS011;7845;53.698;10.078;2023-02-20T10:39:12;13.50;;;9.20;;
15486;SDS011;7845;53.698;10.078;2023-02-20T10:44:20;16.93;;;8.43;;
15486;SDS011;7845;53.698;10.078;2023-02-20T10:46:56;15.70;;;7.37;;
15486;SDS011;7845;53.698;10.078;2023-02-20T10:49:50;12.17;;;7.40;;
15486;SDS011;7845;53.698;10.078;2023-02-20T10:52:23;12.13;;;7.30;;
15486;SDS011;7845;53.698;10.078;2023-02-20T10:55:02;13.50;;;7.20;;
15486;SDS011;7845;53.698;10.078;2023-02-20T10:57:44;13.00;;;6.53;;
15486;SDS011;7845;53.698;10.078;2023-02-20T11:00:16;9.07;;;5.67;;
15486;SDS011;7845;53.698;10.078;2023-02-20T11:02:47;11.37;;;6.00;;
15486;SDS011;7845;53.698;10.078;2023-02-20T11:05:22;13.43;;;6.40;;
15486;SDS011;7845;53.698;10.078;2023-02-20T11:07:50;9.83;;;5.50;;
15486;SDS011;7845;53.698;10.078;2023-02-20T11:10:16;13.63;;;5.60;;
15486;SDS011;7845;53.698;10.078;2023-02-20T11:12:44;8.73;;;5.20;;
15486;SDS011;7845;53.698;10.078;2023-02-20T11:15:15;9.90;;;5.63;;
15486;SDS011;7845;53.698;10.078;2023-02-20T11:17:44;14.07;;;5.87;;
15486;SDS011;7845;53.698;10.078;2023-02-20T11:22:56;9.97;;;4.93;;
15486;SDS011;7845;53.698;10.078;2023-02-20T11:25:29;10.40;;;5.30;;
15486;SDS011;7845;53.698;10.078;2023-02-20T11:28:09;8.27;;;5.00;;
15486;SDS011;7845;53.698;10.078;2023-02-20T11:30:45;10.80;;;5.37;;
15486;SDS011;7845;53.698;10.078;2023-02-20T11:33:13;9.73;;;4.03;;
15486;SDS011;7845;53.698;10.078;2023-02-20T11:35:42;8.20;;;4.47;;
15486;SDS011;7845;53.698;10.078;2023-02-20T11:43:18;8.20;;;4.97;;
15486;SDS011;7845;53.698;10.078;2023-02-20T11:45:47;10.03;;;4.00;;
15486;SDS011;7845;53.698;10.078;2023-02-20T11:48:14;8.40;;;3.87;;
15486;SDS011;7845;53.698;10.078;2023-02-20T11:53:21;8.63;;;3.77;;
15486;SDS011;7845;53.698;10.078;2023-02-20T11:55:47;10.07;;;3.73;;
15486;SDS011;7845;53.698;10.078;2023-02-20T11:58:24;6.20;;;3.23;;
15486;SDS011;7845;53.698;10.078;2023-02-20T12:00:51;7.67;;;3.10;;
15486;SDS011;7845;53.698;10.078;2023-02-20T12:03:22;6.90;;;3.50;;
15486;SDS011;7845;53.698;10.078;2023-02-20T12:05:52;8.57;;;3.60;;
15486;SDS011;7845;53.698;10.078;2023-02-20T12:08:35;8.50;;;4.07;;
15486;SDS011;7845;53.698;10.078;2023-02-20T12:11:15;10.43;;;3.73;;
15486;SDS011;7845;53.698;10.078;2023-02-20T12:13:44;5.37;;;2.97;;
15486;SDS011;7845;53.698;10.078;2023-02-20T12:27:31;8.33;;;3.33;;
15486;SDS011;7845;53.698;10.078;2023-02-20T12:30:19;5.93;;;2.77;;
15486;SDS011;7845;53.698;10.078;2023-02-20T12:33:34;9.87;;;3.03;;
15486;SDS011;7845;53.698;10.078;2023-02-20T12:35:59;12.33;;;3.10;;
15486;SDS011;7845;53.698;10.078;2023-02-20T12:38:44;9.43;;;3.10;;
15486;SDS011;7845;53.698;10.078;2023-02-20T12:41:27;10.90;;;2.80;;
15486;SDS011;7845;53.698;10.078;2023-02-20T12:55:14;7.10;;;2.93;;
15486;SDS011;7845;53.698;10.078;2023-02-20T12:57:52;7.87;;;2.57;;
15486;SDS011;7845;53.698;10.078;2023-02-20T13:03:12;7.53;;;3.20;;
15486;SDS011;7845;53.698;10.078;2023-02-20T13:05:43;8.37;;;2.70;;
15486;SDS011;7845;53.698;10.078;2023-02-20T13:08:15;5.93;;;2.70;;
15486;SDS011;7845;53.698;10.078;2023-02-20T13:11:02;7.47;;;2.40;;
15486;SDS011;7845;53.698;10.078;2023-02-20T13:13:41;7.83;;;2.50;;
15486;SDS011;7845;53.698;10.078;2023-02-20T13:16:38;8.70;;;3.33;;
15486;SDS011;7845;53.698;10.078;2023-02-20T13:19:16;6.70;;;2.47;;
15486;SDS011;7845;53.698;10.078;2023-02-20T13:21:49;7.50;;;3.07;;
15486;SDS011;7845;53.698;10.078;2023-02-20T13:26:53;5.63;;;2.73;;
15486;SDS011;7845;53.698;10.078;2023-02-20T13:29:24;8.37;;;3.17;;
15486;SDS011;7845;53.698;10.078;2023-02-20T13:31:52;7.10;;;2.60;;
15486;SDS011;7845;53.698;10.078;2023-02-20T13:34:26;10.10;;;3.30;;
15486;SDS011;7845;53.698;10.078;2023-02-20T13:36:57;11.37;;;2.60;;
15486;SDS011;7845;53.698;10.078;2023-02-20T13:55:23;9.47;;;3.00;;
15486;SDS011;7845;53.698;10.078;2023-02-20T13:57:51;10.70;;;2.80;;
15486;SDS011;7845;53.698;10.078;2023-02-20T14:03:18;9.20;;;2.90;;
15486;SDS011;7845;53.698;10.078;2023-02-20T14:05:44;8.53;;;2.23;;
15486;SDS011;7845;53.698;10.078;2023-02-20T14:08:19;7.27;;;2.80;;
15486;SDS011;7845;53.698;10.078;2023-02-20T14:10:44;6.10;;;2.47;;
15486;SDS011;7845;53.698;10.078;2023-02-20T14:15:49;5.97;;;2.73;;
15486;SDS011;7845;53.698;10.078;2023-02-20T14:18:17;8.07;;;2.33;;
15486;SDS011;7845;53.698;10.078;2023-02-20T14:20:44;9.77;;;4.23;;
15486;SDS011;7845;53.698;10.078;2023-02-20T14:23:24;6.50;;;2.67;;
15486;SDS011;7845;53.698;10.078;2023-02-20T14:25:52;7.90;;;3.93;;
15486;SDS011;7845;53.698;10.078;2023-02-20T14:28:18;12.90;;;3.57;;
15486;SDS011;7845;53.698;10.078;2023-02-20T14:30:43;6.60;;;3.17;;
15486;SDS011;7845;53.698;10.078;2023-02-20T14:33:14;8.10;;;3.47;;
15486;SDS011;7845;53.698;10.078;2023-02-20T14:36:20;11.50;;;3.50;;
15486;SDS011;7845;53.698;10.078;2023-02-20T14:39:29;10.33;;;3.33;;
15486;SDS011;7845;53.698;10.078;2023-02-20T14:41:53;8.33;;;3.10;;
15486;SDS011;7845;53.698;10.078;2023-02-20T14:44:21;10.10;;;2.83;;
15486;SDS011;7845;53.698;10.078;2023-02-20T14:46:49;7.37;;;3.00;;
15486;SDS011;7845;53.698;10.078;2023-02-20T14:49:22;5.87;;;2.47;;
15486;SDS011;7845;53.698;10.078;2023-02-20T14:52:38;11.27;;;3.13;;
15486;SDS011;7845;53.698;10.078;2023-02-20T14:54:48;9.80;;;4.30;;
15486;SDS011;7845;53.698;10.078;2023-02-20T14:57:21;11.30;;;3.20;;
15486;SDS011;7845;53.698;10.078;2023-02-20T14:59:46;10.33;;;3.70;;
15486;SDS011;7845;53.698;10.078;2023-02-20T15:02:20;7.73;;;2.90;;
15486;SDS011;7845;53.698;10.078;2023-02-20T15:04:53;9.90;;;3.60;;
15486;SDS011;7845;53.698;10.078;2023-02-20T15:07:24;8.40;;;3.53;;
15486;SDS011;7845;53.698;10.078;2023-02-20T15:09:51;10.73;;;3.40;;
15486;SDS011;7845;53.698;10.078;2023-02-20T15:12:23;10.93;;;4.70;;
15486;SDS011;7845;53.698;10.078;2023-02-20T15:15:00;9.03;;;2.70;;
15486;SDS011;7845;53.698;10.078;2023-02-20T15:17:28;8.17;;;3.10;;
15486;SDS011;7845;53.698;10.078;2023-02-20T15:19:56;8.23;;;3.00;;
15486;SDS011;7845;53.698;10.078;2023-02-20T15:22:23;8.53;;;3.17;;
15486;SDS011;7845;53.698;10.078;2023-02-20T15:24:51;5.93;;;2.90;;
15486;SDS011;7845;53.698;10.078;2023-02-20T15:27:20;6.33;;;3.50;;
15486;SDS011;7845;53.698;10.078;2023-02-20T15:32:35;7.90;;;2.50;;
15486;SDS011;7845;53.698;10.078;2023-02-20T15:35:03;6.40;;;3.07;;
15486;SDS011;7845;53.698;10.078;2023-02-20T15:37:32;9.20;;;2.87;;
15486;SDS011;7845;53.698;10.078;2023-02-20T15:40:05;9.10;;;3.03;;
15486;SDS011;7845;53.698;10.078;2023-02-20T15:42:53;9.13;;;2.87;;
15486;SDS011;7845;53.698;10.078;2023-02-20T15:45:26;15.70;;;3.90;;
15486;SDS011;7845;53.698;10.078;2023-02-20T15:47:52;8.93;;;3.77;;
15486;SDS011;7845;53.698;10.078;2023-02-20T15:50:18;8.77;;;3.20;;
15486;SDS011;7845;53.698;10.078;2023-02-20T15:52:45;7.73;;;3.00;;
15486;SDS011;7845;53.698;10.078;2023-02-20T15:55:14;10.03;;;3.00;;
15486;SDS011;7845;53.698;10.078;2023-02-20T15:57:45;10.30;;;2.93;;
15486;SDS011;7845;53.698;10.078;2023-02-20T16:02:49;8.63;;;2.30;;
15486;SDS011;7845;53.698;10.078;2023-02-20T16:05:14;7.73;;;2.10;;
15486;SDS011;7845;53.698;10.078;2023-02-20T16:07:40;6.47;;;2.40;;
15486;SDS011;7845;53.698;10.078;2023-02-20T16:10:05;6.43;;;2.40;;
15486;SDS011;7845;53.698;10.078;2023-02-20T16:12:31;8.53;;;2.20;;
15486;SDS011;7845;53.698;10.078;2023-02-20T16:14:58;4.93;;;2.00;;
15486;SDS011;7845;53.698;10.078;2023-02-20T16:17:25;5.87;;;2.33;;
15486;SDS011;7845;53.698;10.078;2023-02-20T16:19:52;9.07;;;3.00;;
15486;SDS011;7845;53.698;10.078;2023-02-20T16:22:18;8.40;;;2.50;;
15486;SDS011;7845;53.698;10.078;2023-02-20T16:24:43;7.90;;;2.53;;
15486;SDS011;7845;53.698;10.078;2023-02-20T16:27:14;7.80;;;2.67;;
15486;SDS011;7845;53.698;10.078;2023-02-20T16:29:46;13.53;;;3.47;;
15486;SDS011;7845;53.698;10.078;2023-02-20T16:32:14;7.20;;;2.83;;
15486;SDS011;7845;53.698;10.078;2023-02-20T16:34:50;10.00;;;2.40;;
15486;SDS011;7845;53.698;10.078;2023-02-20T16:37:17;5.97;;;2.40;;
15486;SDS011;7845;53.698;10.078;2023-02-20T16:39:43;5.40;;;2.07;;
15486;SDS011;7845;53.698;10.078;2023-02-20T16:44:46;7.73;;;3.10;;